Royal Prince — WCX8037 — position and weather

sailwx.info

Track history (hours):
 
Tides and Currents Weather Stations Pressure Air Temp Water Temp Dewpoint Dewpoint Depression Visibility Wind Speed Wind Dir Waves Ship Positions

Royal Prince

Owner: Golden Gate Scenic Steamship Corp, SAN FRANCISCO, CA. More information available from US FCC via Universal Licensing System and Coast Guard Vessel Documentation Center.

Last reported at 2018-Feb-20 03:39 UTC. Time now 2018-Feb-20 17:29 UTC.
Position N 37°49' W 122°25'.

; draft 3 m.

Type: Passenger vessel. MMSI: 366975760.

Date/timePositionNaut miles runAvg speedWind from/ knotsBaromVisibWave heightAir tempDewpointWater temp
2018-Feb-20 03:39N 37°49' W 122°25'0 0.0
2018-Feb-20 03:30N 37°49' W 122°25'2 4.6
2018-Feb-20 03:00N 37°47' W 122°23'2 4.5
2018-Feb-20 02:30N 37°49' W 122°23'4 7.3
2018-Feb-20 02:00N 37°49' W 122°27'2 4.3
2018-Feb-20 01:30N 37°49' W 122°25'0 0.0
2018-Feb-20 01:00N 37°49' W 122°25'1 1.9
2018-Feb-20 00:30N 37°49' W 122°25'2 3.5
2018-Feb-20 00:01N 37°49' W 122°27'2 3.4
2018-Feb-19 23:28N 37°49' W 122°25'2 4.9
2018-Feb-19 23:01N 37°49' W 122°28'2 4.5
2018-Feb-19 22:31N 37°49' W 122°25'1 1.2
2018-Feb-19 22:01N 37°49' W 122°24'3 6.2
2018-Feb-19 21:31N 37°49' W 122°28'3 5.6
2018-Feb-19 21:01N 37°49' W 122°25'0 0.0
2018-Feb-19 20:31N 37°49' W 122°25'1 2.0
2018-Feb-19 20:01N 37°50' W 122°25'1 2.7
2018-Feb-19 19:30N 37°49' W 122°27'1 3.0
2018-Feb-19 19:01N 37°49' W 122°25'2 4.5
2018-Feb-19 18:31N 37°49' W 122°28'2 4.4
2018-Feb-19 18:00N 37°49' W 122°25'0 0.0
2018-Feb-19 03:39N 37°49' W 122°25'0 0.0
2018-Feb-19 03:30N 37°49' W 122°25'2 4.6
2018-Feb-19 03:01N 37°47' W 122°23'3 5.1
2018-Feb-19 02:31N 37°49' W 122°23'4 7.6
2018-Feb-19 02:01N 37°49' W 122°28'3 5.2
2018-Feb-19 01:30N 37°49' W 122°25'0 0.0
2018-Feb-19 01:01N 37°49' W 122°25'1 2.9
2018-Feb-19 00:31N 37°50' W 122°26'1 1.6
2018-Feb-19 00:00N 37°49' W 122°26'1 2.0
2018-Feb-18 23:30N 37°49' W 122°25'3 5.7
2018-Feb-18 23:00N 37°49' W 122°28'3 5.4
2018-Feb-18 22:29N 37°49' W 122°25'1 2.1
2018-Feb-18 22:00N 37°50' W 122°25'2 4.1
2018-Feb-18 21:30N 37°49' W 122°28'2 4.3
2018-Feb-18 21:00N 37°49' W 122°25'0 0.0
2018-Feb-18 20:29N 37°49' W 122°25'1 1.8
2018-Feb-18 20:00N 37°49' W 122°25'2 3.4
2018-Feb-18 19:30N 37°49' W 122°27'2 3.7
2018-Feb-18 19:01N 37°49' W 122°25'2 4.4
2018-Feb-18 18:30N 37°49' W 122°27'2 4.5
2018-Feb-18 18:00N 37°49' W 122°25'0 0.0
2018-Feb-18 03:41N 37°49' W 122°25'0 0.0
2018-Feb-18 03:30N 37°49' W 122°25'2 4.6
2018-Feb-18 03:00N 37°47' W 122°23'2 4.7
2018-Feb-18 02:30N 37°49' W 122°23'4 7.8
2018-Feb-18 02:01N 37°49' W 122°28'3 5.2
2018-Feb-18 01:30N 37°49' W 122°25'0 0.0
2018-Feb-18 01:00N 37°49' W 122°25'0 0.0
2018-Feb-18 00:31N 37°49' W 122°25'0 0.0
2018-Feb-18 00:00N 37°49' W 122°25'0 0.0
2018-Feb-17 23:30N 37°49' W 122°25'0 0.0
2018-Feb-17 23:01N 37°49' W 122°25'0 0.0
2018-Feb-17 22:31N 37°49' W 122°25'0 0.0
2018-Feb-17 22:00N 37°49' W 122°25'0 0.0
2018-Feb-17 21:30N 37°49' W 122°25'2 3.7
2018-Feb-17 21:00N 37°48' W 122°23'4 8.8
2018-Feb-17 20:30N 37°50' W 122°28'3 5.0
2018-Feb-17 20:00N 37°49' W 122°25'0 0.0
2018-Feb-17 19:30N 37°49' W 122°25'2 4.4
2018-Feb-17 19:00N 37°50' W 122°27'2 4.4
2018-Feb-17 18:30N 37°49' W 122°25'0 0.0
2018-Feb-17 18:01N 37°49' W 122°25'0 0.0
2018-Feb-17 03:44N 37°49' W 122°25'0 0.2
2018-Feb-17 03:31N 37°49' W 122°25'2 4.6
2018-Feb-17 03:00N 37°47' W 122°23'2 4.5
2018-Feb-17 02:30N 37°49' W 122°23'4 7.6
2018-Feb-17 02:00N 37°49' W 122°28'2 4.9
2018-Feb-17 01:30N 37°49' W 122°25'0 0.0
2018-Feb-17 01:00N 37°49' W 122°25'1 2.1
2018-Feb-17 00:31N 37°50' W 122°25'2 4.0
2018-Feb-17 00:00N 37°49' W 122°28'2 4.1
2018-Feb-16 23:30N 37°49' W 122°25'2 4.4
2018-Feb-16 23:00N 37°50' W 122°27'2 4.4
2018-Feb-16 22:31N 37°49' W 122°25'1 1.2
2018-Feb-16 22:00N 37°49' W 122°25'3 6.1
2018-Feb-16 21:30N 37°49' W 122°28'3 5.6
2018-Feb-16 21:01N 37°49' W 122°25'0 0.0
2018-Feb-16 20:31N 37°49' W 122°25'1 1.8
2018-Feb-16 20:00N 37°49' W 122°25'2 3.7
2018-Feb-16 19:30N 37°49' W 122°27'2 3.7
2018-Feb-16 19:01N 37°49' W 122°25'2 4.3
2018-Feb-16 18:30N 37°49' W 122°27'2 4.3
2018-Feb-16 18:00N 37°49' W 122°25'0 0.0
2018-Feb-16 03:38N 37°49' W 122°25'0 0.0
2018-Feb-16 03:30N 37°49' W 122°25'2 4.4
2018-Feb-16 03:00N 37°47' W 122°23'3 5.2
2018-Feb-16 02:30N 37°50' W 122°22'4 8.9
2018-Feb-16 02:00N 37°50' W 122°27'2 4.5
2018-Feb-16 01:30N 37°49' W 122°25'0 0.0
2018-Feb-16 01:00N 37°49' W 122°25'1 2.6
2018-Feb-16 00:30N 37°50' W 122°26'1 2.3
2018-Feb-16 00:00N 37°49' W 122°26'1 2.4
2018-Feb-15 23:31N 37°49' W 122°25'3 5.3
2018-Feb-15 23:00N 37°49' W 122°28'3 5.3
2018-Feb-15 22:30N 37°49' W 122°25'1 1.6
2018-Feb-15 22:01N 37°49' W 122°25'3 5.5
2018-Feb-15 21:30N 37°49' W 122°28'3 5.3
2018-Feb-15 21:00N 37°49' W 122°25'0 0.0
2018-Feb-15 20:30N 37°49' W 122°25'1 2.0
2018-Feb-15 20:00N 37°50' W 122°25'2 3.6
2018-Feb-15 19:30N 37°49' W 122°27'2 3.5
2018-Feb-15 19:00N 37°49' W 122°25'2 4.6
2018-Feb-15 18:30N 37°50' W 122°28'2 4.6
2018-Feb-15 18:00N 37°49' W 122°25'0 0.0
2018-Feb-15 03:33N 37°49' W 122°25'0 0.0
2018-Feb-15 03:30N 37°49' W 122°25'2 4.2
2018-Feb-15 03:00N 37°49' W 122°28'2 4.0
2018-Feb-15 02:30N 37°50' W 122°26'3 6.8
2018-Feb-15 02:00N 37°48' W 122°22'2 4.6
2018-Feb-15 01:30N 37°49' W 122°25'0 0.0
2018-Feb-15 01:00N 37°49' W 122°25'1 1.6
2018-Feb-15 00:30N 37°49' W 122°24'3 5.7
2018-Feb-15 00:00N 37°49' W 122°28'2 4.6
2018-Feb-14 23:30N 37°49' W 122°25'2 3.8
2018-Feb-14 23:00N 37°50' W 122°27'2 3.7
2018-Feb-14 22:30N 37°49' W 122°25'0 0.5
2018-Feb-14 22:00N 37°49' W 122°25'3 6.3
2018-Feb-14 21:31N 37°49' W 122°29'3 6.0
2018-Feb-14 21:00N 37°49' W 122°25'0 0.0
2018-Feb-14 20:30N 37°49' W 122°25'1 1.2
2018-Feb-14 20:00N 37°49' W 122°24'3 5.5
2018-Feb-14 19:30N 37°49' W 122°28'2 4.8
2018-Feb-14 19:00N 37°49' W 122°25'2 3.3
2018-Feb-14 18:30N 37°50' W 122°27'2 3.3
2018-Feb-14 18:00N 37°49' W 122°25'0 0.0
2018-Feb-14 00:06N 37°49' W 122°25'0 0.0
2018-Feb-14 00:00N 37°49' W 122°25'2 4.3
2018-Feb-13 23:30N 37°50' W 122°27'2 4.3
2018-Feb-13 23:00N 37°49' W 122°25'1 1.1
2018-Feb-13 22:30N 37°49' W 122°25'3 5.4
2018-Feb-13 22:00N 37°49' W 122°28'3 5.2
2018-Feb-13 21:30N 37°49' W 122°25'1 2.3
2018-Feb-13 21:00N 37°49' W 122°23'4 7.2
2018-Feb-13 20:30N 37°49' W 122°28'3 5.0
2018-Feb-13 20:00N 37°49' W 122°25'0 0.0
2018-Feb-13 03:40N 37°49' W 122°25'0 0.3
2018-Feb-13 03:30N 37°49' W 122°25'2 4.7
2018-Feb-13 03:00N 37°47' W 122°23'2 4.3
2018-Feb-13 02:30N 37°49' W 122°23'4 8.9
2018-Feb-13 02:00N 37°49' W 122°28'3 5.6
2018-Feb-13 01:30N 37°49' W 122°25'0 0.0
2018-Feb-13 01:00N 37°49' W 122°25'1 2.2
2018-Feb-13 00:30N 37°50' W 122°25'2 3.1
2018-Feb-13 00:00N 37°49' W 122°27'1 2.9
2018-Feb-12 23:30N 37°49' W 122°25'2 4.4
2018-Feb-12 23:00N 37°49' W 122°27'2 4.4
2018-Feb-12 22:30N 37°49' W 122°25'1 1.9
2018-Feb-12 22:00N 37°49' W 122°25'2 4.8
2018-Feb-12 21:31N 37°49' W 122°28'3 4.8
2018-Feb-12 20:59N 37°49' W 122°25'0 0.0
2018-Feb-12 20:31N 37°49' W 122°25'1 2.3
2018-Feb-12 20:01N 37°50' W 122°25'2 3.1
2018-Feb-12 19:30N 37°49' W 122°27'2 3.1
2018-Feb-12 19:00N 37°49' W 122°25'2 4.4
2018-Feb-12 18:31N 37°49' W 122°27'2 4.3
2018-Feb-12 18:00N 37°49' W 122°25'0 0.0
2018-Feb-12 03:44N 37°49' W 122°25'0 0.3
2018-Feb-12 03:30N 37°49' W 122°25'2 4.7
2018-Feb-12 03:00N 37°47' W 122°23'2 4.2
2018-Feb-12 02:30N 37°49' W 122°23'4 8.8
2018-Feb-12 02:00N 37°49' W 122°28'3 5.8
2018-Feb-12 01:30N 37°49' W 122°25'0 0.0
2018-Feb-12 01:00N 37°49' W 122°25'1 2.6
2018-Feb-12 00:30N 37°50' W 122°25'1 2.5
2018-Feb-12 00:00N 37°49' W 122°26'1 2.2
2018-Feb-11 23:30N 37°49' W 122°25'2 3.6
2018-Feb-11 23:00N 37°49' W 122°27'2 3.6
2018-Feb-11 22:30N 37°49' W 122°25'1 1.1
2018-Feb-11 22:00N 37°49' W 122°24'3 6.6
2018-Feb-11 21:30N 37°49' W 122°28'3 5.7
2018-Feb-11 21:00N 37°49' W 122°25'0 0.0
2018-Feb-11 20:30N 37°49' W 122°25'1 2.1
2018-Feb-11 20:00N 37°50' W 122°25'2 3.9
2018-Feb-11 19:30N 37°49' W 122°27'2 3.9
2018-Feb-11 19:00N 37°49' W 122°25'2 4.3
2018-Feb-11 18:30N 37°49' W 122°27'2 4.5
2018-Feb-11 18:00N 37°49' W 122°25'0 0.0
2018-Feb-11 03:39N 37°49' W 122°25'0 0.0
2018-Feb-11 03:30N 37°49' W 122°25'2 4.6
2018-Feb-11 03:00N 37°47' W 122°23'2 4.5
2018-Feb-11 02:30N 37°49' W 122°23'4 8.5
2018-Feb-11 02:00N 37°49' W 122°29'3 6.1
2018-Feb-11 01:30N 37°49' W 122°25'0 0.0
2018-Feb-11 01:00N 37°49' W 122°25'1 1.5
2018-Feb-11 00:30N 37°49' W 122°24'2 4.6
2018-Feb-11 00:00N 37°49' W 122°27'2 3.8
2018-Feb-10 23:30N 37°49' W 122°25'2 4.0
2018-Feb-10 23:00N 37°49' W 122°27'2 4.0
2018-Feb-10 22:30N 37°49' W 122°25'1 1.1
2018-Feb-10 22:00N 37°49' W 122°24'3 5.9
2018-Feb-10 21:30N 37°49' W 122°28'3 5.3
2018-Feb-10 21:00N 37°49' W 122°25'0 0.0
2018-Feb-10 20:30N 37°49' W 122°25'1 1.7
2018-Feb-10 20:00N 37°49' W 122°24'3 5.3
2018-Feb-10 19:30N 37°49' W 122°28'2 4.5
2018-Feb-10 19:00N 37°49' W 122°25'2 3.5
2018-Feb-10 18:30N 37°50' W 122°27'2 3.5
2018-Feb-10 18:00N 37°49' W 122°25'  
Track history (hours):
 
Tides and Currents Weather Stations Pressure Air Temp Water Temp Dewpoint Dewpoint Depression Visibility Wind Speed Wind Dir Waves Ship Positions

Royal Prince

Owner: Golden Gate Scenic Steamship Corp, SAN FRANCISCO, CA. More information available from US FCC via Universal Licensing System and Coast Guard Vessel Documentation Center.

Last reported at 2018-Feb-20 03:39 UTC. Time now 2018-Feb-20 17:29 UTC.
Position N 37°49' W 122°25'.

; draft 3 m.

Type: Passenger vessel. MMSI: 366975760.

Date/timePositionNaut miles runAvg speedWind from/ knotsBaromVisibWave heightAir tempDewpointWater temp
2018-Feb-20 03:39N 37°49' W 122°25'0 0.0
2018-Feb-20 03:30N 37°49' W 122°25'2 4.6
2018-Feb-20 03:00N 37°47' W 122°23'2 4.5
2018-Feb-20 02:30N 37°49' W 122°23'4 7.3
2018-Feb-20 02:00N 37°49' W 122°27'2 4.3
2018-Feb-20 01:30N 37°49' W 122°25'0 0.0
2018-Feb-20 01:00N 37°49' W 122°25'1 1.9
2018-Feb-20 00:30N 37°49' W 122°25'2 3.5
2018-Feb-20 00:01N 37°49' W 122°27'2 3.4
2018-Feb-19 23:28N 37°49' W 122°25'2 4.9
2018-Feb-19 23:01N 37°49' W 122°28'2 4.5
2018-Feb-19 22:31N 37°49' W 122°25'1 1.2
2018-Feb-19 22:01N 37°49' W 122°24'3 6.2
2018-Feb-19 21:31N 37°49' W 122°28'3 5.6
2018-Feb-19 21:01N 37°49' W 122°25'0 0.0
2018-Feb-19 20:31N 37°49' W 122°25'1 2.0
2018-Feb-19 20:01N 37°50' W 122°25'1 2.7
2018-Feb-19 19:30N 37°49' W 122°27'1 3.0
2018-Feb-19 19:01N 37°49' W 122°25'2 4.5
2018-Feb-19 18:31N 37°49' W 122°28'2 4.4
2018-Feb-19 18:00N 37°49' W 122°25'0 0.0
2018-Feb-19 03:39N 37°49' W 122°25'0 0.0
2018-Feb-19 03:30N 37°49' W 122°25'2 4.6
2018-Feb-19 03:01N 37°47' W 122°23'3 5.1
2018-Feb-19 02:31N 37°49' W 122°23'4 7.6
2018-Feb-19 02:01N 37°49' W 122°28'3 5.2
2018-Feb-19 01:30N 37°49' W 122°25'0 0.0
2018-Feb-19 01:01N 37°49' W 122°25'1 2.9
2018-Feb-19 00:31N 37°50' W 122°26'1 1.6
2018-Feb-19 00:00N 37°49' W 122°26'1 2.0
2018-Feb-18 23:30N 37°49' W 122°25'3 5.7
2018-Feb-18 23:00N 37°49' W 122°28'3 5.4
2018-Feb-18 22:29N 37°49' W 122°25'1 2.1
2018-Feb-18 22:00N 37°50' W 122°25'2 4.1
2018-Feb-18 21:30N 37°49' W 122°28'2 4.3
2018-Feb-18 21:00N 37°49' W 122°25'0 0.0
2018-Feb-18 20:29N 37°49' W 122°25'1 1.8
2018-Feb-18 20:00N 37°49' W 122°25'2 3.4
2018-Feb-18 19:30N 37°49' W 122°27'2 3.7
2018-Feb-18 19:01N 37°49' W 122°25'2 4.4
2018-Feb-18 18:30N 37°49' W 122°27'2 4.5
2018-Feb-18 18:00N 37°49' W 122°25'0 0.0
2018-Feb-18 03:41N 37°49' W 122°25'0 0.0
2018-Feb-18 03:30N 37°49' W 122°25'2 4.6
2018-Feb-18 03:00N 37°47' W 122°23'2 4.7
2018-Feb-18 02:30N 37°49' W 122°23'4 7.8
2018-Feb-18 02:01N 37°49' W 122°28'3 5.2
2018-Feb-18 01:30N 37°49' W 122°25'0 0.0
2018-Feb-18 01:00N 37°49' W 122°25'0 0.0
2018-Feb-18 00:31N 37°49' W 122°25'0 0.0
2018-Feb-18 00:00N 37°49' W 122°25'0 0.0
2018-Feb-17 23:30N 37°49' W 122°25'0 0.0
2018-Feb-17 23:01N 37°49' W 122°25'0 0.0
2018-Feb-17 22:31N 37°49' W 122°25'0 0.0
2018-Feb-17 22:00N 37°49' W 122°25'0 0.0
2018-Feb-17 21:30N 37°49' W 122°25'2 3.7
2018-Feb-17 21:00N 37°48' W 122°23'4 8.8
2018-Feb-17 20:30N 37°50' W 122°28'3 5.0
2018-Feb-17 20:00N 37°49' W 122°25'0 0.0
2018-Feb-17 19:30N 37°49' W 122°25'2 4.4
2018-Feb-17 19:00N 37°50' W 122°27'2 4.4
2018-Feb-17 18:30N 37°49' W 122°25'0 0.0
2018-Feb-17 18:01N 37°49' W 122°25'0 0.0
2018-Feb-17 03:44N 37°49' W 122°25'0 0.2
2018-Feb-17 03:31N 37°49' W 122°25'2 4.6
2018-Feb-17 03:00N 37°47' W 122°23'2 4.5
2018-Feb-17 02:30N 37°49' W 122°23'4 7.6
2018-Feb-17 02:00N 37°49' W 122°28'2 4.9
2018-Feb-17 01:30N 37°49' W 122°25'0 0.0
2018-Feb-17 01:00N 37°49' W 122°25'1 2.1
2018-Feb-17 00:31N 37°50' W 122°25'2 4.0
2018-Feb-17 00:00N 37°49' W 122°28'2 4.1
2018-Feb-16 23:30N 37°49' W 122°25'2 4.4
2018-Feb-16 23:00N 37°50' W 122°27'2 4.4
2018-Feb-16 22:31N 37°49' W 122°25'1 1.2
2018-Feb-16 22:00N 37°49' W 122°25'3 6.1
2018-Feb-16 21:30N 37°49' W 122°28'3 5.6
2018-Feb-16 21:01N 37°49' W 122°25'0 0.0
2018-Feb-16 20:31N 37°49' W 122°25'1 1.8
2018-Feb-16 20:00N 37°49' W 122°25'2 3.7
2018-Feb-16 19:30N 37°49' W 122°27'2 3.7
2018-Feb-16 19:01N 37°49' W 122°25'2 4.3
2018-Feb-16 18:30N 37°49' W 122°27'2 4.3
2018-Feb-16 18:00N 37°49' W 122°25'0 0.0
2018-Feb-16 03:38N 37°49' W 122°25'0 0.0
2018-Feb-16 03:30N 37°49' W 122°25'2 4.4
2018-Feb-16 03:00N 37°47' W 122°23'3 5.2
2018-Feb-16 02:30N 37°50' W 122°22'4 8.9
2018-Feb-16 02:00N 37°50' W 122°27'2 4.5
2018-Feb-16 01:30N 37°49' W 122°25'0 0.0
2018-Feb-16 01:00N 37°49' W 122°25'1 2.6
2018-Feb-16 00:30N 37°50' W 122°26'1 2.3
2018-Feb-16 00:00N 37°49' W 122°26'1 2.4
2018-Feb-15 23:31N 37°49' W 122°25'3 5.3
2018-Feb-15 23:00N 37°49' W 122°28'3 5.3
2018-Feb-15 22:30N 37°49' W 122°25'1 1.6
2018-Feb-15 22:01N 37°49' W 122°25'3 5.5
2018-Feb-15 21:30N 37°49' W 122°28'3 5.3
2018-Feb-15 21:00N 37°49' W 122°25'0 0.0
2018-Feb-15 20:30N 37°49' W 122°25'1 2.0
2018-Feb-15 20:00N 37°50' W 122°25'2 3.6
2018-Feb-15 19:30N 37°49' W 122°27'2 3.5
2018-Feb-15 19:00N 37°49' W 122°25'2 4.6
2018-Feb-15 18:30N 37°50' W 122°28'2 4.6
2018-Feb-15 18:00N 37°49' W 122°25'0 0.0
2018-Feb-15 03:33N 37°49' W 122°25'0 0.0
2018-Feb-15 03:30N 37°49' W 122°25'2 4.2
2018-Feb-15 03:00N 37°49' W 122°28'2 4.0
2018-Feb-15 02:30N 37°50' W 122°26'3 6.8
2018-Feb-15 02:00N 37°48' W 122°22'2 4.6
2018-Feb-15 01:30N 37°49' W 122°25'0 0.0
2018-Feb-15 01:00N 37°49' W 122°25'1 1.6
2018-Feb-15 00:30N 37°49' W 122°24'3 5.7
2018-Feb-15 00:00N 37°49' W 122°28'2 4.6
2018-Feb-14 23:30N 37°49' W 122°25'2 3.8
2018-Feb-14 23:00N 37°50' W 122°27'2 3.7
2018-Feb-14 22:30N 37°49' W 122°25'0 0.5
2018-Feb-14 22:00N 37°49' W 122°25'3 6.3
2018-Feb-14 21:31N 37°49' W 122°29'3 6.0
2018-Feb-14 21:00N 37°49' W 122°25'0 0.0
2018-Feb-14 20:30N 37°49' W 122°25'1 1.2
2018-Feb-14 20:00N 37°49' W 122°24'3 5.5
2018-Feb-14 19:30N 37°49' W 122°28'2 4.8
2018-Feb-14 19:00N 37°49' W 122°25'2 3.3
2018-Feb-14 18:30N 37°50' W 122°27'2 3.3
2018-Feb-14 18:00N 37°49' W 122°25'0 0.0
2018-Feb-14 00:06N 37°49' W 122°25'0 0.0
2018-Feb-14 00:00N 37°49' W 122°25'2 4.3
2018-Feb-13 23:30N 37°50' W 122°27'2 4.3
2018-Feb-13 23:00N 37°49' W 122°25'1 1.1
2018-Feb-13 22:30N 37°49' W 122°25'3 5.4
2018-Feb-13 22:00N 37°49' W 122°28'3 5.2
2018-Feb-13 21:30N 37°49' W 122°25'1 2.3
2018-Feb-13 21:00N 37°49' W 122°23'4 7.2
2018-Feb-13 20:30N 37°49' W 122°28'3 5.0
2018-Feb-13 20:00N 37°49' W 122°25'0 0.0
2018-Feb-13 03:40N 37°49' W 122°25'0 0.3
2018-Feb-13 03:30N 37°49' W 122°25'2 4.7
2018-Feb-13 03:00N 37°47' W 122°23'2 4.3
2018-Feb-13 02:30N 37°49' W 122°23'4 8.9
2018-Feb-13 02:00N 37°49' W 122°28'3 5.6
2018-Feb-13 01:30N 37°49' W 122°25'0 0.0
2018-Feb-13 01:00N 37°49' W 122°25'1 2.2
2018-Feb-13 00:30N 37°50' W 122°25'2 3.1
2018-Feb-13 00:00N 37°49' W 122°27'1 2.9
2018-Feb-12 23:30N 37°49' W 122°25'2 4.4
2018-Feb-12 23:00N 37°49' W 122°27'2 4.4
2018-Feb-12 22:30N 37°49' W 122°25'1 1.9
2018-Feb-12 22:00N 37°49' W 122°25'2 4.8
2018-Feb-12 21:31N 37°49' W 122°28'3 4.8
2018-Feb-12 20:59N 37°49' W 122°25'0 0.0
2018-Feb-12 20:31N 37°49' W 122°25'1 2.3
2018-Feb-12 20:01N 37°50' W 122°25'2 3.1
2018-Feb-12 19:30N 37°49' W 122°27'2 3.1
2018-Feb-12 19:00N 37°49' W 122°25'2 4.4
2018-Feb-12 18:31N 37°49' W 122°27'2 4.3
2018-Feb-12 18:00N 37°49' W 122°25'0 0.0
2018-Feb-12 03:44N 37°49' W 122°25'0 0.3
2018-Feb-12 03:30N 37°49' W 122°25'2 4.7
2018-Feb-12 03:00N 37°47' W 122°23'2 4.2
2018-Feb-12 02:30N 37°49' W 122°23'4 8.8
2018-Feb-12 02:00N 37°49' W 122°28'3 5.8
2018-Feb-12 01:30N 37°49' W 122°25'0 0.0
2018-Feb-12 01:00N 37°49' W 122°25'1 2.6
2018-Feb-12 00:30N 37°50' W 122°25'1 2.5
2018-Feb-12 00:00N 37°49' W 122°26'1 2.2
2018-Feb-11 23:30N 37°49' W 122°25'2 3.6
2018-Feb-11 23:00N 37°49' W 122°27'2 3.6
2018-Feb-11 22:30N 37°49' W 122°25'1 1.1
2018-Feb-11 22:00N 37°49' W 122°24'3 6.6
2018-Feb-11 21:30N 37°49' W 122°28'3 5.7
2018-Feb-11 21:00N 37°49' W 122°25'0 0.0
2018-Feb-11 20:30N 37°49' W 122°25'1 2.1
2018-Feb-11 20:00N 37°50' W 122°25'2 3.9
2018-Feb-11 19:30N 37°49' W 122°27'2 3.9
2018-Feb-11 19:00N 37°49' W 122°25'2 4.3
2018-Feb-11 18:30N 37°49' W 122°27'2 4.5
2018-Feb-11 18:00N 37°49' W 122°25'0 0.0
2018-Feb-11 03:39N 37°49' W 122°25'0 0.0
2018-Feb-11 03:30N 37°49' W 122°25'2 4.6
2018-Feb-11 03:00N 37°47' W 122°23'2 4.5
2018-Feb-11 02:30N 37°49' W 122°23'4 8.5
2018-Feb-11 02:00N 37°49' W 122°29'3 6.1
2018-Feb-11 01:30N 37°49' W 122°25'0 0.0
2018-Feb-11 01:00N 37°49' W 122°25'1 1.5
2018-Feb-11 00:30N 37°49' W 122°24'2 4.6
2018-Feb-11 00:00N 37°49' W 122°27'2 3.8
2018-Feb-10 23:30N 37°49' W 122°25'2 4.0
2018-Feb-10 23:00N 37°49' W 122°27'2 4.0
2018-Feb-10 22:30N 37°49' W 122°25'1 1.1
2018-Feb-10 22:00N 37°49' W 122°24'3 5.9
2018-Feb-10 21:30N 37°49' W 122°28'3 5.3
2018-Feb-10 21:00N 37°49' W 122°25'0 0.0
2018-Feb-10 20:30N 37°49' W 122°25'1 1.7
2018-Feb-10 20:00N 37°49' W 122°24'3 5.3
2018-Feb-10 19:30N 37°49' W 122°28'2 4.5
2018-Feb-10 19:00N 37°49' W 122°25'2 3.5
2018-Feb-10 18:30N 37°50' W 122°27'2 3.5
2018-Feb-10 18:00N 37°49' W 122°25'  

Dump ship's entire track history